Terminal Aerodrome Forecast
Issued by NWS

Home | Current Version | Previous Version | Text Only | Print | Product List | Glossary On
Versions: 1 2 3 4 5 6 7 8 9 10 11 12 13 14 15 16 17 18 19 20 21 22 23 24 25 26 27 28 29
000
FTUS43 KDTX 250946 AAD
TAFMBS
TAF AMD
KMBS 250946Z 2510/2606 18012G20KT 2SM -SHRA BR OVC004 WS007/11040KT
     FM251030 24025G39KT P6SM BKN008 OVC015
     FM251500 24022G37KT P6SM OVC020
     FM251800 24015G25KT P6SM FEW035
     FM252300 25010KT P6SM SKC=

USA.gov is the U.S. government's official web portal to all federal, state and local government web resources and services.